createdAt,value
2023-01-05T00:02:51.918Z,11.80
2023-01-05T00:07:44.595Z,11.90
2023-01-05T00:12:54.169Z,11.90
2023-01-05T00:18:02.772Z,11.90
2023-01-05T00:22:55.694Z,11.90
2023-01-05T00:27:50.803Z,11.90
2023-01-05T00:32:43.070Z,11.90
2023-01-05T00:37:35.265Z,11.90
2023-01-05T00:42:28.158Z,11.90
2023-01-05T00:47:19.371Z,11.80
2023-01-05T00:52:10.270Z,11.80
2023-01-05T00:57:01.167Z,11.70
2023-01-05T01:01:55.721Z,11.70
2023-01-05T01:06:47.634Z,11.60
2023-01-05T01:11:38.816Z,11.60
2023-01-05T01:16:29.810Z,11.60
2023-01-05T01:21:22.190Z,11.50
2023-01-05T01:26:14.532Z,11.50
2023-01-05T01:31:07.220Z,11.50
2023-01-05T01:35:58.473Z,11.50
2023-01-05T01:40:50.867Z,11.50
2023-01-05T01:45:41.911Z,11.40
2023-01-05T01:50:35.916Z,11.40
2023-01-05T01:55:28.540Z,11.30
2023-01-05T02:00:21.730Z,11.20
2023-01-05T02:05:17.881Z,11.10
2023-01-05T02:10:09.273Z,11.10
2023-01-05T02:15:13.069Z,11.00
2023-01-05T02:20:37.110Z,11.10
2023-01-05T02:26:01.770Z,11.00
2023-01-05T02:31:10.428Z,11.00
2023-01-05T02:36:09.802Z,11.00
2023-01-05T02:41:08.581Z,11.00
2023-01-05T02:46:02.776Z,11.00
2023-01-05T02:51:01.242Z,11.00
2023-01-05T02:55:56.762Z,11.00
2023-01-05T03:00:56.932Z,11.10
2023-01-05T03:05:54.998Z,11.10
2023-01-05T03:11:14.802Z,11.10
2023-01-05T03:16:08.914Z,11.00
2023-01-05T03:21:02.919Z,10.90
2023-01-05T03:26:13.934Z,10.80
2023-01-05T03:31:28.557Z,10.60
2023-01-05T03:36:27.519Z,10.50
2023-01-05T03:41:23.380Z,10.30
2023-01-05T03:46:18.351Z,10.30
2023-01-05T03:51:09.872Z,10.30
2023-01-05T03:56:05.916Z,10.30
2023-01-05T04:00:56.960Z,10.30
2023-01-05T04:05:48.966Z,10.40
2023-01-05T04:10:40.539Z,10.40
2023-01-05T04:15:34.018Z,10.30
2023-01-05T04:20:40.178Z,10.40
2023-01-05T04:26:42.778Z,10.40
2023-01-05T04:31:36.043Z,10.40
2023-01-05T04:36:27.321Z,10.40
2023-01-05T04:41:20.383Z,10.40
2023-01-05T04:46:14.510Z,10.20
2023-01-05T04:51:09.960Z,10.10
2023-01-05T04:56:02.935Z,10.10
2023-01-05T05:01:27.455Z,10.00
2023-01-05T05:06:31.006Z,10.00
2023-01-05T05:11:23.637Z,10.00
2023-01-05T05:16:15.903Z,10.00
2023-01-05T05:21:09.002Z,10.00
2023-01-05T05:26:02.839Z,10.10
2023-01-05T05:30:54.863Z,10.10
2023-01-05T05:35:45.836Z,10.10
2023-01-05T05:40:36.901Z,10.20
2023-01-05T05:45:29.659Z,10.20
2023-01-05T05:50:20.379Z,10.20
2023-01-05T05:55:11.960Z,10.20
2023-01-05T06:00:03.256Z,10.20
2023-01-05T06:05:05.156Z,10.10
2023-01-05T06:09:55.881Z,10.10
2023-01-05T06:14:46.364Z,10.10
2023-01-05T06:19:37.513Z,10.10
2023-01-05T06:24:29.861Z,10.10
2023-01-05T06:29:20.677Z,10.10
2023-01-05T06:34:11.700Z,10.10
2023-01-05T06:39:02.659Z,10.00
2023-01-05T06:43:55.028Z,10.00
2023-01-05T06:48:45.944Z,10.00
2023-01-05T06:53:37.221Z,10.10
2023-01-05T06:58:28.295Z,10.10
2023-01-05T07:03:20.799Z,10.10
2023-01-05T07:08:11.855Z,10.10
2023-01-05T07:13:02.692Z,10.10
2023-01-05T07:17:53.829Z,10.10
2023-01-05T07:22:46.433Z,10.10
2023-01-05T07:27:37.564Z,10.10
2023-01-05T07:32:28.562Z,10.10
2023-01-05T07:37:20.103Z,10.10
2023-01-05T07:42:13.205Z,10.10
2023-01-05T07:47:05.715Z,10.10
2023-01-05T07:51:56.540Z,10.00
2023-01-05T07:56:47.277Z,10.10
2023-01-05T08:01:40.204Z,10.10
2023-01-05T08:06:31.038Z,10.10
2023-01-05T08:11:22.016Z,10.00
2023-01-05T08:16:13.228Z,9.90
2023-01-05T08:21:05.991Z,9.90
2023-01-05T08:25:57.124Z,9.80
2023-01-05T08:30:48.280Z,9.70
2023-01-05T08:35:41.874Z,9.80
2023-01-05T08:40:34.024Z,9.80
2023-01-05T08:45:24.677Z,9.90
2023-01-05T08:50:15.442Z,10.00
2023-01-05T08:55:07.920Z,10.00
2023-01-05T09:00:00.388Z,10.20
2023-01-05T09:04:51.032Z,10.20
2023-01-05T09:09:42.115Z,10.30
2023-01-05T09:14:33.127Z,10.50
2023-01-05T09:19:25.491Z,10.80
2023-01-05T09:24:17.553Z,10.90
2023-01-05T09:29:10.241Z,10.90
2023-01-05T09:34:04.523Z,10.90
2023-01-05T09:38:57.405Z,10.80
2023-01-05T09:43:49.854Z,10.80
2023-01-05T09:48:44.762Z,10.80
2023-01-05T09:53:36.075Z,10.60
2023-01-05T09:58:34.818Z,10.50
2023-01-05T10:04:02.579Z,10.50
2023-01-05T10:08:41.783Z,10.40
2023-01-05T10:13:36.889Z,10.30
2023-01-05T10:18:29.351Z,10.20
2023-01-05T10:23:50.917Z,10.20
2023-01-05T10:28:49.964Z,10.40
2023-01-05T10:33:54.430Z,10.60
2023-01-05T10:38:58.164Z,10.70
2023-01-05T10:44:08.295Z,10.80
2023-01-05T10:49:00.802Z,10.70
2023-01-05T10:53:51.816Z,10.70
2023-01-05T10:58:44.767Z,10.80
2023-01-05T11:04:24.014Z,10.80
2023-01-05T11:08:52.697Z,10.90
2023-01-05T11:13:49.122Z,10.90
2023-01-05T11:18:49.713Z,10.90
2023-01-05T11:23:43.289Z,11.00
2023-01-05T11:28:35.663Z,11.10
2023-01-05T11:33:29.474Z,11.10
2023-01-05T11:38:25.817Z,11.10
2023-01-05T11:43:48.215Z,10.90
2023-01-05T11:48:39.745Z,10.90
2023-01-05T11:53:40.417Z,10.80
2023-01-05T11:58:36.347Z,10.90
2023-01-05T12:03:44.776Z,10.80
2023-01-05T12:08:47.090Z,10.70
2023-01-05T12:14:01.470Z,10.70
2023-01-05T12:19:23.659Z,10.60
2023-01-05T12:24:34.388Z,10.50
2023-01-05T12:31:34.366Z,10.40
2023-01-05T12:35:40.316Z,10.40
2023-01-05T12:40:52.195Z,10.30
2023-01-05T12:46:09.921Z,10.30
2023-01-05T12:51:09.581Z,10.30
2023-01-05T12:56:28.007Z,10.30
2023-01-05T13:01:24.697Z,10.30
2023-01-05T13:06:19.356Z,10.30
2023-01-05T13:11:18.708Z,10.30
2023-01-05T13:16:15.137Z,10.30
2023-01-05T13:21:14.603Z,10.30
2023-01-05T13:26:08.998Z,10.30
2023-01-05T13:31:31.542Z,10.30
2023-01-05T13:36:38.138Z,10.30
2023-01-05T13:41:45.771Z,10.20
2023-01-05T13:46:56.789Z,10.20
2023-01-05T13:51:58.921Z,10.20
2023-01-05T13:56:51.201Z,10.10
2023-01-05T14:01:45.722Z,10.10
2023-01-05T14:06:38.726Z,10.10
2023-01-05T14:11:30.890Z,10.10
2023-01-05T14:16:49.540Z,10.10
2023-01-05T14:22:00.792Z,10.10
2023-01-05T14:27:03.647Z,10.20
2023-01-05T14:31:57.489Z,10.10
2023-01-05T14:37:03.666Z,10.10
2023-01-05T14:42:01.107Z,10.10
2023-01-05T14:46:54.557Z,10.10
2023-01-05T14:51:54.218Z,10.00
2023-01-05T14:57:36.094Z,10.00
2023-01-05T15:02:32.127Z,9.90
2023-01-05T15:07:34.868Z,9.80
2023-01-05T15:12:53.468Z,9.60
2023-01-05T15:18:08.940Z,9.50
2023-01-05T15:23:16.113Z,9.40
2023-01-05T15:28:28.794Z,9.30
2023-01-05T15:33:27.896Z,9.30
2023-01-05T15:38:24.284Z,9.10
2023-01-05T15:43:17.966Z,9.00
2023-01-05T15:48:11.164Z,9.00
2023-01-05T15:53:02.920Z,8.90
2023-01-05T15:57:55.909Z,8.80
2023-01-05T16:02:47.905Z,8.80
2023-01-05T16:07:43.359Z,8.70
2023-01-05T16:12:34.830Z,8.70
2023-01-05T16:17:26.876Z,8.60
2023-01-05T16:22:22.987Z,8.60
2023-01-05T16:27:14.848Z,8.60
2023-01-05T16:32:26.103Z,8.60
2023-01-05T16:37:19.778Z,8.60
2023-01-05T16:42:39.737Z,8.60
2023-01-05T16:47:38.960Z,8.60
2023-01-05T16:52:46.087Z,8.60
2023-01-05T16:57:42.633Z,8.60
2023-01-05T17:02:46.362Z,8.50
2023-01-05T17:07:40.890Z,8.50
2023-01-05T17:12:31.989Z,8.50
2023-01-05T17:17:24.600Z,8.50
2023-01-05T17:22:15.909Z,8.40
2023-01-05T17:32:06.968Z,8.40
2023-01-05T17:36:59.882Z,8.40
2023-01-05T17:41:51.113Z,8.40
2023-01-05T17:46:45.249Z,8.40
2023-01-05T17:51:35.993Z,8.40
2023-01-05T17:56:27.538Z,8.40
2023-01-05T18:01:18.396Z,8.40
2023-01-05T18:06:10.840Z,8.40
2023-01-05T18:11:03.225Z,8.40
2023-01-05T18:15:56.256Z,8.40
2023-01-05T18:20:46.846Z,8.40
2023-01-05T18:25:39.810Z,8.40
2023-01-05T18:30:31.106Z,8.40
2023-01-05T18:35:22.452Z,8.40
2023-01-05T18:40:14.147Z,8.40
2023-01-05T18:45:19.873Z,8.30
2023-01-05T18:50:16.940Z,8.30
2023-01-05T18:55:08.286Z,8.30
2023-01-05T19:00:00.130Z,8.20
2023-01-05T19:04:53.632Z,8.20
2023-01-05T19:09:44.466Z,8.20
2023-01-05T19:14:35.769Z,8.20
2023-01-05T19:26:38.541Z,8.20
2023-01-05T19:31:30.367Z,8.10
2023-01-05T19:36:24.444Z,8.10
2023-01-05T19:41:16.781Z,8.00
2023-01-05T19:46:12.066Z,7.90
2023-01-05T19:51:05.878Z,7.90
2023-01-05T19:56:02.677Z,7.90
2023-01-05T20:00:54.317Z,7.90
2023-01-05T20:05:46.647Z,7.80
2023-01-05T20:10:39.671Z,7.80
2023-01-05T20:15:30.781Z,7.80
2023-01-05T20:20:21.978Z,7.80
2023-01-05T20:25:13.922Z,7.80
2023-01-05T20:30:05.381Z,7.80
2023-01-05T20:35:00.238Z,7.80
2023-01-05T20:39:51.403Z,7.80
2023-01-05T20:44:46.069Z,7.80
2023-01-05T20:49:37.921Z,7.80
2023-01-05T20:54:29.137Z,7.80
2023-01-05T20:59:23.843Z,7.80
2023-01-05T21:04:19.883Z,7.80
2023-01-05T21:09:11.407Z,7.80
2023-01-05T21:14:03.756Z,7.80
2023-01-05T21:18:55.138Z,7.80
2023-01-05T21:23:49.141Z,7.80
2023-01-05T21:28:41.487Z,7.80
2023-01-05T21:33:33.113Z,7.80
2023-01-05T21:38:24.785Z,7.80
2023-01-05T21:43:19.857Z,7.80
2023-01-05T21:48:12.103Z,7.80
2023-01-05T21:53:22.523Z,7.80
2023-01-05T21:58:13.466Z,7.90
2023-01-05T22:03:05.794Z,7.80
2023-01-05T22:07:56.588Z,7.90
2023-01-05T22:12:47.734Z,7.80
2023-01-05T22:17:38.689Z,7.90
2023-01-05T22:22:31.104Z,7.90
2023-01-05T22:27:22.180Z,7.90
2023-01-05T22:32:13.396Z,7.90
2023-01-05T22:37:04.437Z,7.90
2023-01-05T22:41:56.952Z,8.00
2023-01-05T22:46:48.179Z,8.00
2023-01-05T22:51:41.148Z,7.90
2023-01-05T22:56:33.493Z,8.00
2023-01-05T23:01:29.095Z,7.90
2023-01-05T23:10:14.357Z,7.90
2023-01-05T23:14:38.390Z,7.80
2023-01-05T23:19:03.181Z,7.70
2023-01-05T23:23:27.955Z,7.70
2023-01-05T23:27:53.663Z,7.60
2023-01-05T23:32:17.460Z,7.50
2023-01-05T23:36:41.376Z,7.30
2023-01-05T23:41:08.202Z,7.20
2023-01-05T23:45:33.403Z,7.10
2023-01-05T23:49:57.250Z,7.10
2023-01-05T23:54:21.374Z,7.00
2023-01-05T23:58:45.263Z,7.00
